Hanover, Virginia
Current Conditions -  °F | °C
As of 10:54 PM on Saturday 25 Oct 2014 (Local Time) from KOFP Reporting Station
Clear Clear  
Wind Chill: 59°   Ceiling: Unl
Heat Index: 59°   Visibility: 10mi
Dew Point: 44°   Wind: 7mph
Humidity: 58%   Direction: 230°SW
Pressure: 29.77"   Gusts: NA
Location:  37.77°N, 77.37°W
Report Text: KOFP 260254Z AUTO 23006KT 10SM CLR 15/07 A2977 RMK AO2 SLP081 T01500067 56015
Loading
Personal Weather Stations






























Interactive Weather Map
Tropical Storm Tracking
New forecast layout! Learn more

10-Day Weather Forecast

Advertisements
Track Severe Weather on mobile